sensor_id;sensor_type;location;lat;lon;timestamp;pressure;altitude;pressure_sealevel;temperature;humidity
30873;BME280;17579;42.690;2.586;2022-08-03T00:00:51;96969.28;;;31.11;19.90
30873;BME280;17579;42.690;2.586;2022-08-03T00:03:17;96969.81;;;31.13;19.93
30873;BME280;17579;42.690;2.586;2022-08-03T00:05:42;96961.91;;;31.11;19.97
30873;BME280;17579;42.690;2.586;2022-08-03T00:08:08;96959.16;;;31.11;20.06
30873;BME280;17579;42.690;2.586;2022-08-03T00:10:35;96959.97;;;31.12;19.92
30873;BME280;17579;42.690;2.586;2022-08-03T00:13:02;96971.44;;;31.14;19.90
30873;BME280;17579;42.690;2.586;2022-08-03T00:15:28;96966.28;;;31.12;19.86
30873;BME280;17579;42.690;2.586;2022-08-03T00:17:53;96961.38;;;31.09;20.41
30873;BME280;17579;42.690;2.586;2022-08-03T00:20:20;96961.13;;;31.05;20.25
30873;BME280;17579;42.690;2.586;2022-08-03T00:22:46;96964.94;;;31.04;20.32
30873;BME280;17579;42.690;2.586;2022-08-03T00:25:12;96952.97;;;31.00;20.08
30873;BME280;17579;42.690;2.586;2022-08-03T00:27:38;96956.22;;;30.97;20.37
30873;BME280;17579;42.690;2.586;2022-08-03T00:30:04;96951.91;;;30.91;20.29
30873;BME280;17579;42.690;2.586;2022-08-03T00:32:30;96956.31;;;30.87;20.43
30873;BME280;17579;42.690;2.586;2022-08-03T00:34:55;96954.16;;;30.84;20.44
30873;BME280;17579;42.690;2.586;2022-08-03T00:37:21;96952.00;;;30.81;20.66
30873;BME280;17579;42.690;2.586;2022-08-03T00:39:46;96951.72;;;30.77;20.47
30873;BME280;17579;42.690;2.586;2022-08-03T00:42:12;96950.66;;;30.73;20.53
30873;BME280;17579;42.690;2.586;2022-08-03T00:44:39;96946.63;;;30.65;20.84
30873;BME280;17579;42.690;2.586;2022-08-03T00:47:05;96944.47;;;30.62;20.90
30873;BME280;17579;42.690;2.586;2022-08-03T00:49:31;96945.03;;;30.59;21.24
30873;BME280;17579;42.690;2.586;2022-08-03T00:51:58;96942.88;;;30.56;20.49
30873;BME280;17579;42.690;2.586;2022-08-03T00:54:24;96943.97;;;30.55;20.75
30873;BME280;17579;42.690;2.586;2022-08-03T00:56:50;96949.72;;;30.53;20.78
30873;BME280;17579;42.690;2.586;2022-08-03T00:59:17;96943.69;;;30.51;20.44
30873;BME280;17579;42.690;2.586;2022-08-03T01:01:42;96937.44;;;30.51;20.85
30873;BME280;17579;42.690;2.586;2022-08-03T01:04:08;96932.25;;;30.49;20.55
30873;BME280;17579;42.690;2.586;2022-08-03T01:06:45;96932.81;;;30.46;20.40
30873;BME280;17579;42.690;2.586;2022-08-03T01:09:29;96929.81;;;30.48;20.57
30873;BME280;17579;42.690;2.586;2022-08-03T01:12:08;96922.16;;;30.50;20.85
30873;BME280;17579;42.690;2.586;2022-08-03T01:14:45;96921.88;;;30.51;20.76
30873;BME280;17579;42.690;2.586;2022-08-03T01:17:39;96924.31;;;30.53;20.88
30873;BME280;17579;42.690;2.586;2022-08-03T01:20:12;96922.66;;;30.57;20.62
30873;BME280;17579;42.690;2.586;2022-08-03T01:31:26;96939.94;;;30.37;21.32
30873;BME280;17579;42.690;2.586;2022-08-03T01:34:01;96941.31;;;30.34;21.62
30873;BME280;17579;42.690;2.586;2022-08-03T01:36:38;96938.91;;;30.28;21.29
30873;BME280;17579;42.690;2.586;2022-08-03T01:39:06;96936.44;;;30.26;21.23
30873;BME280;17579;42.690;2.586;2022-08-03T01:41:45;96940.31;;;30.20;21.65
30873;BME280;17579;42.690;2.586;2022-08-03T01:44:12;96937.81;;;30.18;21.11
30873;BME280;17579;42.690;2.586;2022-08-03T01:46:39;96940.56;;;30.18;21.38
30873;BME280;17579;42.690;2.586;2022-08-03T01:49:08;96938.69;;;30.14;21.58
30873;BME280;17579;42.690;2.586;2022-08-03T01:51:37;96945.22;;;30.13;21.84
30873;BME280;17579;42.690;2.586;2022-08-03T01:54:04;96939.50;;;30.14;21.44
30873;BME280;17579;42.690;2.586;2022-08-03T01:56:31;96935.38;;;30.17;21.61
30873;BME280;17579;42.690;2.586;2022-08-03T01:58:59;96936.75;;;30.19;21.50
30873;BME280;17579;42.690;2.586;2022-08-03T02:01:27;96932.66;;;30.17;21.61
30873;BME280;17579;42.690;2.586;2022-08-03T02:03:54;96931.84;;;30.16;21.61
30873;BME280;17579;42.690;2.586;2022-08-03T02:06:21;96930.75;;;30.17;21.72
30873;BME280;17579;42.690;2.586;2022-08-03T02:08:48;96924.47;;;30.17;21.95
30873;BME280;17579;42.690;2.586;2022-08-03T02:11:16;96920.66;;;30.18;21.43
30873;BME280;17579;42.690;2.586;2022-08-03T02:13:43;96928.59;;;30.14;21.72
30873;BME280;17579;42.690;2.586;2022-08-03T02:16:11;96927.53;;;30.10;21.48
30873;BME280;17579;42.690;2.586;2022-08-03T02:18:39;96927.81;;;30.09;22.08
30873;BME280;17579;42.690;2.586;2022-08-03T02:21:06;96925.59;;;30.11;21.47
30873;BME280;17579;42.690;2.586;2022-08-03T02:23:35;96931.06;;;30.11;21.42
30873;BME280;17579;42.690;2.586;2022-08-03T02:26:03;96926.72;;;30.04;21.38
30873;BME280;17579;42.690;2.586;2022-08-03T02:28:34;96929.47;;;29.99;21.15
30873;BME280;17579;42.690;2.586;2022-08-03T02:31:04;96931.09;;;30.00;21.50
30873;BME280;17579;42.690;2.586;2022-08-03T02:33:36;96921.00;;;30.01;21.68
30873;BME280;17579;42.690;2.586;2022-08-03T02:36:04;96925.66;;;30.00;21.37
30873;BME280;17579;42.690;2.586;2022-08-03T02:38:33;96922.66;;;29.97;21.81
30873;BME280;17579;42.690;2.586;2022-08-03T02:41:06;96931.66;;;29.97;21.61
30873;BME280;17579;42.690;2.586;2022-08-03T02:43:34;96924.56;;;29.96;21.53
30873;BME280;17579;42.690;2.586;2022-08-03T02:46:00;96922.41;;;29.93;21.40
30873;BME280;17579;42.690;2.586;2022-08-03T02:48:29;96918.06;;;29.87;21.27
30873;BME280;17579;42.690;2.586;2022-08-03T02:50:57;96919.44;;;29.84;21.54
30873;BME280;17579;42.690;2.586;2022-08-03T02:53:25;96919.97;;;29.81;21.73
30873;BME280;17579;42.690;2.586;2022-08-03T02:55:52;96917.53;;;29.80;21.54
30873;BME280;17579;42.690;2.586;2022-08-03T02:58:20;96916.69;;;29.79;22.20
30873;BME280;17579;42.690;2.586;2022-08-03T03:00:48;96904.97;;;29.79;22.16
30873;BME280;17579;42.690;2.586;2022-08-03T03:03:16;96911.00;;;29.76;21.95
30873;BME280;17579;42.690;2.586;2022-08-03T03:05:43;96914.00;;;29.74;21.80
30873;BME280;17579;42.690;2.586;2022-08-03T03:08:12;96913.44;;;29.72;21.96
30873;BME280;17579;42.690;2.586;2022-08-03T03:10:38;96907.19;;;29.71;21.87
30873;BME280;17579;42.690;2.586;2022-08-03T03:13:06;96914.28;;;29.72;21.90
30873;BME280;17579;42.690;2.586;2022-08-03T03:15:34;96911.56;;;29.72;21.95
30873;BME280;17579;42.690;2.586;2022-08-03T03:18:02;96916.16;;;29.72;21.81
30873;BME280;17579;42.690;2.586;2022-08-03T03:20:28;96913.19;;;29.68;22.29
30873;BME280;17579;42.690;2.586;2022-08-03T03:22:55;96915.09;;;29.68;22.02
30873;BME280;17579;42.690;2.586;2022-08-03T03:25:23;96910.19;;;29.65;21.97
30873;BME280;17579;42.690;2.586;2022-08-03T03:27:49;96909.94;;;29.61;22.41
30873;BME280;17579;42.690;2.586;2022-08-03T03:30:15;96911.03;;;29.60;22.37
30873;BME280;17579;42.690;2.586;2022-08-03T03:32:41;96912.09;;;29.59;22.13
30873;BME280;17579;42.690;2.586;2022-08-03T03:35:07;96906.41;;;29.55;22.27
30873;BME280;17579;42.690;2.586;2022-08-03T03:37:34;96908.59;;;29.53;22.23
30873;BME280;17579;42.690;2.586;2022-08-03T03:39:59;96900.69;;;29.52;22.53
30873;BME280;17579;42.690;2.586;2022-08-03T03:42:25;96905.59;;;29.50;22.67
30873;BME280;17579;42.690;2.586;2022-08-03T03:44:51;96900.44;;;29.48;22.46
30873;BME280;17579;42.690;2.586;2022-08-03T03:47:17;96900.72;;;29.47;22.61
30873;BME280;17579;42.690;2.586;2022-08-03T03:49:43;96893.91;;;29.44;22.65
30873;BME280;17579;42.690;2.586;2022-08-03T03:52:09;96900.44;;;29.43;22.91
30873;BME280;17579;42.690;2.586;2022-08-03T03:54:39;96899.06;;;29.41;22.85
30873;BME280;17579;42.690;2.586;2022-08-03T03:57:05;96907.81;;;29.37;22.91
30873;BME280;17579;42.690;2.586;2022-08-03T03:59:31;96907.00;;;29.37;23.21
30873;BME280;17579;42.690;2.586;2022-08-03T04:01:57;96906.72;;;29.33;23.09
30873;BME280;17579;42.690;2.586;2022-08-03T04:04:23;96920.09;;;29.30;23.22
30873;BME280;17579;42.690;2.586;2022-08-03T04:07:00;96913.78;;;29.29;22.84
30873;BME280;17579;42.690;2.586;2022-08-03T04:09:38;96913.28;;;29.27;23.41
30873;BME280;17579;42.690;2.586;2022-08-03T04:12:18;96916.25;;;29.26;22.99
30873;BME280;17579;42.690;2.586;2022-08-03T04:14:46;96916.22;;;29.20;23.15
30873;BME280;17579;42.690;2.586;2022-08-03T04:17:13;96930.41;;;29.17;23.46
30873;BME280;17579;42.690;2.586;2022-08-03T04:19:42;96928.50;;;29.13;23.50
30873;BME280;17579;42.690;2.586;2022-08-03T04:22:11;96924.13;;;29.12;23.29
30873;BME280;17579;42.690;2.586;2022-08-03T04:24:41;96929.06;;;29.10;22.99
30873;BME280;17579;42.690;2.586;2022-08-03T04:27:10;96931.78;;;29.10;23.55
30873;BME280;17579;42.690;2.586;2022-08-03T04:29:38;96925.50;;;29.04;23.39
30873;BME280;17579;42.690;2.586;2022-08-03T04:32:07;96933.13;;;29.02;23.30
30873;BME280;17579;42.690;2.586;2022-08-03T04:34:33;96925.25;;;28.95;23.64
30873;BME280;17579;42.690;2.586;2022-08-03T04:37:00;96931.22;;;28.92;23.66
30873;BME280;17579;42.690;2.586;2022-08-03T04:39:30;96933.94;;;28.87;23.08
30873;BME280;17579;42.690;2.586;2022-08-03T04:41:58;96940.19;;;28.88;23.38
30873;BME280;17579;42.690;2.586;2022-08-03T04:44:25;96942.38;;;28.85;23.37
30873;BME280;17579;42.690;2.586;2022-08-03T04:46:53;96937.47;;;28.82;23.97
30873;BME280;17579;42.690;2.586;2022-08-03T04:49:20;96946.19;;;28.84;23.90
30873;BME280;17579;42.690;2.586;2022-08-03T04:51:48;96942.94;;;28.82;23.86
30873;BME280;17579;42.690;2.586;2022-08-03T04:54:14;96952.97;;;28.82;23.75
30873;BME280;17579;42.690;2.586;2022-08-03T04:56:41;96956.53;;;28.82;23.66
30873;BME280;17579;42.690;2.586;2022-08-03T04:59:09;96950.25;;;28.82;24.65
30873;BME280;17579;42.690;2.586;2022-08-03T05:01:35;96956.53;;;28.82;24.43
30873;BME280;17579;42.690;2.586;2022-08-03T05:04:01;96955.44;;;28.78;24.82
30873;BME280;17579;42.690;2.586;2022-08-03T05:06:27;96960.59;;;28.75;23.66
30873;BME280;17579;42.690;2.586;2022-08-03T05:08:52;96958.41;;;28.72;23.58
30873;BME280;17579;42.690;2.586;2022-08-03T05:11:18;96960.31;;;28.71;23.94
30873;BME280;17579;42.690;2.586;2022-08-03T05:13:44;96971.47;;;28.69;23.61
30873;BME280;17579;42.690;2.586;2022-08-03T05:16:11;96963.84;;;28.66;23.68
30873;BME280;17579;42.690;2.586;2022-08-03T05:18:38;96964.94;;;28.65;23.78
30873;BME280;17579;42.690;2.586;2022-08-03T05:21:04;96966.56;;;28.66;24.02
30873;BME280;17579;42.690;2.586;2022-08-03T05:23:29;96961.13;;;28.66;24.11
30873;BME280;17579;42.690;2.586;2022-08-03T05:25:55;96963.03;;;28.66;24.22
30873;BME280;17579;42.690;2.586;2022-08-03T05:28:21;96970.09;;;28.67;23.92
30873;BME280;17579;42.690;2.586;2022-08-03T05:30:47;96972.00;;;28.72;24.40
30873;BME280;17579;42.690;2.586;2022-08-03T05:33:12;96969.31;;;28.77;23.99
30873;BME280;17579;42.690;2.586;2022-08-03T05:35:38;96967.97;;;28.79;24.16
30873;BME280;17579;42.690;2.586;2022-08-03T05:38:04;96973.13;;;28.81;24.25
30873;BME280;17579;42.690;2.586;2022-08-03T05:40:30;96980.22;;;28.87;24.56
30873;BME280;17579;42.690;2.586;2022-08-03T05:42:57;96972.88;;;28.98;24.42
30873;BME280;17579;42.690;2.586;2022-08-03T05:45:23;96982.97;;;29.13;24.49
30873;BME280;17579;42.690;2.586;2022-08-03T05:47:49;96988.44;;;29.23;24.25
30873;BME280;17579;42.690;2.586;2022-08-03T05:50:16;96981.63;;;29.36;24.39
30873;BME280;17579;42.690;2.586;2022-08-03T05:52:42;96994.69;;;29.54;24.07
30873;BME280;17579;42.690;2.586;2022-08-03T05:55:09;96992.75;;;29.76;24.09
30873;BME280;17579;42.690;2.586;2022-08-03T05:57:36;96997.66;;;29.94;24.51
30873;BME280;17579;42.690;2.586;2022-08-03T06:00:07;96991.34;;;30.09;24.10
30873;BME280;17579;42.690;2.586;2022-08-03T06:02:33;96995.88;;;30.34;25.04
30873;BME280;17579;42.690;2.586;2022-08-03T06:04:59;96993.09;;;30.55;24.72
30873;BME280;17579;42.690;2.586;2022-08-03T06:07:25;96992.69;;;30.06;26.92
30873;BME280;17579;42.690;2.586;2022-08-03T06:09:50;96999.78;;;30.73;26.20
30873;BME280;17579;42.690;2.586;2022-08-03T06:12:16;96997.69;;;31.09;25.56
30873;BME280;17579;42.690;2.586;2022-08-03T06:14:42;96996.66;;;31.35;25.30
30873;BME280;17579;42.690;2.586;2022-08-03T06:17:07;96998.47;;;31.50;24.69
30873;BME280;17579;42.690;2.586;2022-08-03T06:19:33;96998.97;;;31.57;24.35
30873;BME280;17579;42.690;2.586;2022-08-03T06:21:58;97003.47;;;31.72;25.07
30873;BME280;17579;42.690;2.586;2022-08-03T06:24:24;97010.19;;;31.85;25.35
30873;BME280;17579;42.690;2.586;2022-08-03T06:26:50;97006.03;;;31.92;26.35
30873;BME280;17579;42.690;2.586;2022-08-03T06:29:16;97010.31;;;31.99;26.84
30873;BME280;17579;42.690;2.586;2022-08-03T06:31:41;97010.00;;;32.05;27.24
30873;BME280;17579;42.690;2.586;2022-08-03T06:34:07;97011.56;;;32.11;27.72
30873;BME280;17579;42.690;2.586;2022-08-03T06:36:33;97011.75;;;32.20;27.39
30873;BME280;17579;42.690;2.586;2022-08-03T06:38:58;97014.06;;;32.32;27.09
30873;BME280;17579;42.690;2.586;2022-08-03T06:41:25;97023.91;;;32.33;27.49
30873;BME280;17579;42.690;2.586;2022-08-03T06:43:51;97023.84;;;32.38;27.69
30873;BME280;17579;42.690;2.586;2022-08-03T06:46:17;97030.00;;;32.49;28.22
30873;BME280;17579;42.690;2.586;2022-08-03T06:48:43;97029.00;;;32.64;28.41
30873;BME280;17579;42.690;2.586;2022-08-03T06:51:09;97037.00;;;32.60;28.25
30873;BME280;17579;42.690;2.586;2022-08-03T06:53:35;97030.47;;;32.56;28.61
30873;BME280;17579;42.690;2.586;2022-08-03T06:56:00;97034.75;;;32.68;28.34
30873;BME280;17579;42.690;2.586;2022-08-03T06:58:26;97034.94;;;32.71;28.65
30873;BME280;17579;42.690;2.586;2022-08-03T07:00:52;97045.25;;;32.79;28.60
30873;BME280;17579;42.690;2.586;2022-08-03T07:03:17;97042.31;;;32.27;30.46
30873;BME280;17579;42.690;2.586;2022-08-03T07:05:43;97045.69;;;33.06;29.16
30873;BME280;17579;42.690;2.586;2022-08-03T07:08:11;97045.88;;;33.33;28.73
30873;BME280;17579;42.690;2.586;2022-08-03T07:10:37;97042.81;;;33.54;28.96
30873;BME280;17579;42.690;2.586;2022-08-03T07:13:03;97050.13;;;33.59;28.31
30873;BME280;17579;42.690;2.586;2022-08-03T07:15:29;97058.78;;;33.66;28.60
30873;BME280;17579;42.690;2.586;2022-08-03T07:17:55;97057.22;;;33.79;28.50
30873;BME280;17579;42.690;2.586;2022-08-03T07:20:23;97058.66;;;33.76;28.46
30873;BME280;17579;42.690;2.586;2022-08-03T07:22:50;97056.03;;;33.85;28.50
30873;BME280;17579;42.690;2.586;2022-08-03T07:25:16;97056.16;;;33.94;28.61
30873;BME280;17579;42.690;2.586;2022-08-03T07:27:46;97068.72;;;33.95;28.48
30873;BME280;17579;42.690;2.586;2022-08-03T07:30:14;97061.16;;;34.06;28.67
30873;BME280;17579;42.690;2.586;2022-08-03T07:32:40;97064.22;;;34.18;28.95
30873;BME280;17579;42.690;2.586;2022-08-03T07:35:07;97060.00;;;34.40;29.25
30873;BME280;17579;42.690;2.586;2022-08-03T07:37:33;97062.03;;;34.34;29.36
30873;BME280;17579;42.690;2.586;2022-08-03T07:39:59;97073.28;;;34.46;30.25
30873;BME280;17579;42.690;2.586;2022-08-03T07:42:27;97071.16;;;34.57;30.12
30873;BME280;17579;42.690;2.586;2022-08-03T07:44:52;97068.91;;;34.59;30.66
30873;BME280;17579;42.690;2.586;2022-08-03T07:47:22;97070.34;;;34.57;30.11
30873;BME280;17579;42.690;2.586;2022-08-03T07:49:48;97077.06;;;34.64;30.69
30873;BME280;17579;42.690;2.586;2022-08-03T07:52:14;97078.88;;;34.69;30.68
30873;BME280;17579;42.690;2.586;2022-08-03T07:54:51;97070.13;;;34.81;30.87
30873;BME280;17579;42.690;2.586;2022-08-03T07:57:17;97079.31;;;34.90;31.08
30873;BME280;17579;42.690;2.586;2022-08-03T07:59:45;97076.81;;;35.02;30.88
30873;BME280;17579;42.690;2.586;2022-08-03T08:02:10;97076.50;;;35.04;30.59
30873;BME280;17579;42.690;2.586;2022-08-03T08:04:36;97078.78;;;34.88;30.92
30873;BME280;17579;42.690;2.586;2022-08-03T08:07:01;97074.75;;;35.08;30.75
30873;BME280;17579;42.690;2.586;2022-08-03T08:09:27;97078.34;;;35.09;30.38
30873;BME280;17579;42.690;2.586;2022-08-03T08:11:53;97076.59;;;35.13;30.15
30873;BME280;17579;42.690;2.586;2022-08-03T08:14:18;97076.47;;;35.18;30.64
30873;BME280;17579;42.690;2.586;2022-08-03T08:16:44;97072.94;;;35.17;30.05
30873;BME280;17579;42.690;2.586;2022-08-03T08:19:10;97086.69;;;35.03;30.09
30873;BME280;17579;42.690;2.586;2022-08-03T08:21:36;97080.34;;;35.31;29.71
30873;BME280;17579;42.690;2.586;2022-08-03T08:24:01;97085.91;;;35.62;29.45
30873;BME280;17579;42.690;2.586;2022-08-03T08:26:27;97094.59;;;35.78;29.09
30873;BME280;17579;42.690;2.586;2022-08-03T08:28:52;97099.81;;;35.80;29.02
30873;BME280;17579;42.690;2.586;2022-08-03T08:31:18;97092.81;;;35.96;28.63
30873;BME280;17579;42.690;2.586;2022-08-03T08:33:44;97095.69;;;36.22;28.44
30873;BME280;17579;42.690;2.586;2022-08-03T08:36:09;97094.41;;;36.29;28.29
30873;BME280;17579;42.690;2.586;2022-08-03T08:38:35;97101.34;;;36.17;28.17
30873;BME280;17579;42.690;2.586;2022-08-03T08:41:00;97092.63;;;36.24;27.98
30873;BME280;17579;42.690;2.586;2022-08-03T08:43:27;97096.97;;;36.16;28.19
30873;BME280;17579;42.690;2.586;2022-08-03T08:45:53;97106.66;;;36.36;27.91
30873;BME280;17579;42.690;2.586;2022-08-03T08:48:24;97101.34;;;36.17;28.78
30873;BME280;17579;42.690;2.586;2022-08-03T08:50:55;97107.44;;;36.05;29.12
30873;BME280;17579;42.690;2.586;2022-08-03T08:53:25;97101.19;;;35.91;29.62
30873;BME280;17579;42.690;2.586;2022-08-03T08:55:51;97106.88;;;35.72;29.78
30873;BME280;17579;42.690;2.586;2022-08-03T08:58:20;97104.66;;;35.60;30.23
30873;BME280;17579;42.690;2.586;2022-08-03T09:00:47;97108.19;;;35.52;30.32
30873;BME280;17579;42.690;2.586;2022-08-03T09:03:13;97106.78;;;35.41;29.98
30873;BME280;17579;42.690;2.586;2022-08-03T09:05:41;97101.63;;;35.11;30.40
30873;BME280;17579;42.690;2.586;2022-08-03T09:08:07;97106.97;;;34.94;30.45
30873;BME280;17579;42.690;2.586;2022-08-03T09:10:33;97116.84;;;34.67;30.93
30873;BME280;17579;42.690;2.586;2022-08-03T09:12:59;97118.25;;;34.64;31.34
30873;BME280;17579;42.690;2.586;2022-08-03T09:15:31;97115.09;;;34.57;31.58
30873;BME280;17579;42.690;2.586;2022-08-03T09:17:59;97124.97;;;34.58;31.02
30873;BME280;17579;42.690;2.586;2022-08-03T09:20:30;97124.03;;;34.35;31.48
30873;BME280;17579;42.690;2.586;2022-08-03T09:23:00;97125.03;;;34.25;32.01
30873;BME280;17579;42.690;2.586;2022-08-03T09:25:31;97124.78;;;34.22;32.19
30873;BME280;17579;42.690;2.586;2022-08-03T09:28:09;97126.81;;;34.16;32.81
30873;BME280;17579;42.690;2.586;2022-08-03T09:30:38;97118.13;;;34.28;33.25
30873;BME280;17579;42.690;2.586;2022-08-03T09:33:07;97124.13;;;34.30;33.16
30873;BME280;17579;42.690;2.586;2022-08-03T09:35:39;97123.31;;;34.29;33.32
30873;BME280;17579;42.690;2.586;2022-08-03T09:38:16;97129.88;;;34.14;33.96
30873;BME280;17579;42.690;2.586;2022-08-03T09:40:43;97137.69;;;34.07;35.37
30873;BME280;17579;42.690;2.586;2022-08-03T09:43:10;97136.81;;;33.93;35.90
30873;BME280;17579;42.690;2.586;2022-08-03T09:45:38;97144.19;;;33.78;36.59
30873;BME280;17579;42.690;2.586;2022-08-03T09:48:30;97138.31;;;33.66;36.52
30873;BME280;17579;42.690;2.586;2022-08-03T09:50:59;97140.69;;;33.73;37.17
30873;BME280;17579;42.690;2.586;2022-08-03T09:53:26;97145.72;;;33.84;37.57
30873;BME280;17579;42.690;2.586;2022-08-03T09:55:59;97141.56;;;33.87;37.28
30873;BME280;17579;42.690;2.586;2022-08-03T09:58:28;97144.13;;;33.83;37.73
30873;BME280;17579;42.690;2.586;2022-08-03T10:01:03;97148.41;;;33.71;37.64
30873;BME280;17579;42.690;2.586;2022-08-03T10:03:31;97150.63;;;33.68;38.52
30873;BME280;17579;42.690;2.586;2022-08-03T10:05:57;97142.31;;;33.55;39.07
30873;BME280;17579;42.690;2.586;2022-08-03T10:08:23;97136.25;;;33.58;38.93
30873;BME280;17579;42.690;2.586;2022-08-03T10:10:50;97139.81;;;33.58;38.48
30873;BME280;17579;42.690;2.586;2022-08-03T10:13:20;97137.81;;;33.64;38.69
30873;BME280;17579;42.690;2.586;2022-08-03T10:15:46;97132.47;;;33.54;38.80
30873;BME280;17579;42.690;2.586;2022-08-03T10:18:12;97134.94;;;33.36;39.29
30873;BME280;17579;42.690;2.586;2022-08-03T10:20:51;97134.84;;;33.41;38.78
30873;BME280;17579;42.690;2.586;2022-08-03T10:23:17;97141.16;;;33.61;38.96
30873;BME280;17579;42.690;2.586;2022-08-03T10:25:52;97128.69;;;33.49;38.98
30873;BME280;17579;42.690;2.586;2022-08-03T10:28:19;97139.75;;;33.63;39.37
30873;BME280;17579;42.690;2.586;2022-08-03T10:30:52;97144.94;;;33.65;38.94
30873;BME280;17579;42.690;2.586;2022-08-03T10:33:20;97136.75;;;33.60;38.81
30873;BME280;17579;42.690;2.586;2022-08-03T10:35:55;97125.81;;;33.41;38.67
30873;BME280;17579;42.690;2.586;2022-08-03T10:38:27;97137.00;;;33.44;38.89
30873;BME280;17579;42.690;2.586;2022-08-03T10:40:54;97132.25;;;33.50;38.95
30873;BME280;17579;42.690;2.586;2022-08-03T10:43:24;97134.38;;;33.53;39.03
30873;BME280;17579;42.690;2.586;2022-08-03T10:45:50;97136.75;;;33.60;39.07
30873;BME280;17579;42.690;2.586;2022-08-03T10:48:17;97132.47;;;33.54;39.07
30873;BME280;17579;42.690;2.586;2022-08-03T10:50:43;97138.16;;;33.57;39.38
30873;BME280;17579;42.690;2.586;2022-08-03T10:53:09;97131.34;;;33.74;39.14
30873;BME280;17579;42.690;2.586;2022-08-03T10:55:43;97126.97;;;33.73;38.92
30873;BME280;17579;42.690;2.586;2022-08-03T10:58:51;97131.66;;;33.72;39.00
30873;BME280;17579;42.690;2.586;2022-08-03T11:01:19;97136.00;;;33.73;38.94
30873;BME280;17579;42.690;2.586;2022-08-03T11:04:20;97126.94;;;33.78;38.40
30873;BME280;17579;42.690;2.586;2022-08-03T11:06:46;97128.97;;;33.86;38.92
30873;BME280;17579;42.690;2.586;2022-08-03T11:09:17;97128.91;;;33.72;38.65
30873;BME280;17579;42.690;2.586;2022-08-03T11:11:44;97129.97;;;33.76;38.69
30873;BME280;17579;42.690;2.586;2022-08-03T11:14:16;97127.13;;;33.81;38.59
30873;BME280;17579;42.690;2.586;2022-08-03T11:16:45;97128.03;;;33.77;38.16
30873;BME280;17579;42.690;2.586;2022-08-03T11:19:15;97119.28;;;33.75;37.99
30873;BME280;17579;42.690;2.586;2022-08-03T11:22:01;97111.31;;;33.73;37.88
30873;BME280;17579;42.690;2.586;2022-08-03T11:24:55;97105.72;;;33.83;37.54
30873;BME280;17579;42.690;2.586;2022-08-03T11:27:30;97109.47;;;33.88;38.09
30873;BME280;17579;42.690;2.586;2022-08-03T11:30:09;97102.53;;;33.76;37.79
30873;BME280;17579;42.690;2.586;2022-08-03T11:32:56;97109.88;;;33.81;37.85
30873;BME280;17579;42.690;2.586;2022-08-03T11:35:25;97105.97;;;34.01;36.93
30873;BME280;17579;42.690;2.586;2022-08-03T11:38:02;97112.06;;;34.12;36.39
30873;BME280;17579;42.690;2.586;2022-08-03T11:40:50;97107.53;;;34.21;37.00
30873;BME280;17579;42.690;2.586;2022-08-03T11:43:43;97102.19;;;34.30;36.31
30873;BME280;17579;42.690;2.586;2022-08-03T11:46:12;97107.78;;;34.39;35.33
30873;BME280;17579;42.690;2.586;2022-08-03T11:48:44;97104.09;;;34.29;35.18
30873;BME280;17579;42.690;2.586;2022-08-03T11:51:24;97103.19;;;34.34;35.78
30873;BME280;17579;42.690;2.586;2022-08-03T11:53:59;97101.88;;;34.31;35.31
30873;BME280;17579;42.690;2.586;2022-08-03T11:56:25;97098.13;;;34.41;36.12
30873;BME280;17579;42.690;2.586;2022-08-03T11:58:54;97102.91;;;34.35;36.12
30873;BME280;17579;42.690;2.586;2022-08-03T12:01:22;97102.28;;;34.39;35.65
30873;BME280;17579;42.690;2.586;2022-08-03T12:03:49;97092.00;;;34.30;36.52
30873;BME280;17579;42.690;2.586;2022-08-03T12:06:16;97093.03;;;34.34;36.50
30873;BME280;17579;42.690;2.586;2022-08-03T12:08:43;97106.56;;;34.45;36.04
30873;BME280;17579;42.690;2.586;2022-08-03T12:11:12;97098.00;;;34.46;36.62
30873;BME280;17579;42.690;2.586;2022-08-03T12:13:43;97094.94;;;34.48;36.27
30873;BME280;17579;42.690;2.586;2022-08-03T12:16:09;97096.38;;;34.59;36.15
30873;BME280;17579;42.690;2.586;2022-08-03T12:18:41;97094.47;;;34.60;37.22
30873;BME280;17579;42.690;2.586;2022-08-03T12:21:08;97101.69;;;34.56;37.28
30873;BME280;17579;42.690;2.586;2022-08-03T12:23:35;97097.31;;;34.55;36.80
30873;BME280;17579;42.690;2.586;2022-08-03T12:26:07;97096.41;;;34.45;37.01
30873;BME280;17579;42.690;2.586;2022-08-03T12:28:34;97095.25;;;34.46;37.03
30873;BME280;17579;42.690;2.586;2022-08-03T12:31:03;97093.63;;;34.59;36.90
30873;BME280;17579;42.690;2.586;2022-08-03T12:33:30;97100.34;;;34.67;36.74
30873;BME280;17579;42.690;2.586;2022-08-03T12:36:06;97094.38;;;34.79;37.03
30873;BME280;17579;42.690;2.586;2022-08-03T12:38:35;97095.66;;;35.09;36.30
30873;BME280;17579;42.690;2.586;2022-08-03T12:41:07;97090.44;;;35.08;35.82
30873;BME280;17579;42.690;2.586;2022-08-03T12:43:36;97099.72;;;35.12;35.67
30873;BME280;17579;42.690;2.586;2022-08-03T12:46:13;97088.47;;;35.22;35.80
30873;BME280;17579;42.690;2.586;2022-08-03T12:52:00;97089.41;;;35.77;34.79
30873;BME280;17579;42.690;2.586;2022-08-03T12:54:27;97085.41;;;36.05;34.29
30873;BME280;17579;42.690;2.586;2022-08-03T12:57:07;97077.69;;;36.16;34.43
30873;BME280;17579;42.690;2.586;2022-08-03T12:59:37;97086.06;;;36.34;34.38
30873;BME280;17579;42.690;2.586;2022-08-03T13:02:21;97081.94;;;36.63;33.91
30873;BME280;17579;42.690;2.586;2022-08-03T13:04:48;97087.88;;;36.87;33.52
30873;BME280;17579;42.690;2.586;2022-08-03T13:07:15;97090.19;;;37.03;33.68
30873;BME280;17579;42.690;2.586;2022-08-03T13:09:46;97083.22;;;37.05;33.59
30873;BME280;17579;42.690;2.586;2022-08-03T13:12:21;97080.66;;;37.26;33.19
30873;BME280;17579;42.690;2.586;2022-08-03T13:14:49;97082.28;;;37.27;33.14
30873;BME280;17579;42.690;2.586;2022-08-03T13:17:15;97079.50;;;37.27;32.83
30873;BME280;17579;42.690;2.586;2022-08-03T13:19:44;97077.38;;;37.24;32.84